Overview Statistics Trail Chart Weather Telemetry Raw packets
 

This is the latest recevied weather packets stored in our database for station/object NO3B-10. If no packets are shown the sender has not sent any weather packets the latest 10 day(s).

<< 1 2 3 4 5 >>
Time Temp. Humidity Pressure Rain* Wind** Luminosity Snow
1788572827 23.33° C 96% 1010.1 hPa 0 mm - - -
1788572601 23.33° C 96% 1010.1 hPa 0 mm - - -
1788572119 23.33° C 96% 1010 hPa 0 mm - - -
1788571701 23.33° C 96% 1010 hPa 0 mm - - -
1788570804 23.33° C 95% 1009.8 hPa 0 mm - - -
1788569901 23.89° C 95% 1009.4 hPa 0 mm - - -
1788566709 24.44° C 93% 1009.7 hPa 0 mm - - -
1788564010 25° C 91% 1008.9 hPa 0 mm - - -
1788517213 21.67° C 100% 1011.1 hPa 0 mm - - -
1788516312 21.67° C 100% 1010.9 hPa 0 mm - - -
1788512021 21.67° C 100% 1011.1 hPa 0 mm - - -
1788511812 21.67° C 100% 1011.1 hPa 0 mm - - -
1788509114 21.67° C 100% 1011.2 hPa 0 mm - - -
1788506414 22.22° C 100% 1010.5 hPa 2.79 mm - - -
1788503714 22.22° C 99% 1010.3 hPa 9.14 mm - - -
1788497202 25.56° C 95% 1012.4 hPa 0.76 mm - - -
1788495401 26.11° C 97% 1011.6 hPa 0 mm - - -
1788494501 26.11° C 97% 1011.3 hPa 0 mm - - -
1788493601 26.67° C 97% 1011.1 hPa 0 mm - - -
1788492701 26.67° C 97% 1010.8 hPa 0 mm - - -
1788492042 26.67° C 97% 1010.9 hPa 0 mm - - -
1788491801 26.67° C 97% 1010.9 hPa 0 mm - - -
1788491187 26.67° C 97% 1010.8 hPa 0 mm - - -
1788490902 26.67° C 97% 1010.8 hPa 0 mm - - -
1788487302 27.22° C 96% 1011.3 hPa 0 mm - - -

* Rain latest hour (hover to see other rain measurements)
** Current wind speed in m/s (hover to see current wind gust speed)